Time;durP1;ratioP1;P1;durP2;ratioP2;P2;SDS_P1;SDS_P2;PMS_P1;PMS_P2;Temp;Humidity;BMP_temperature;BMP_pressure;BME280_temperature;BME280_humidity;BME280_pressure;Samples;Min_cycle;Max_cycle;Signal;HPM_P1;HPM_P2
2023/02/15 00:01:25;;;;;;;7.00;4.07;;;;;;;;;;5134096;27;20490;-67
2023/02/15 00:03:51;;;;;;;4.97;4.32;;;;;;;;;;5137935;27;20011;-67
2023/02/15 00:06:17;;;;;;;8.40;4.38;;;;;;;;;;5131594;27;20015;-68
2023/02/15 00:08:44;;;;;;;7.15;4.07;;;;;;;;;;5137619;27;20031;-68
2023/02/15 00:11:11;;;;;;;5.07;4.03;;;;;;;;;;5133137;27;20019;-67
2023/02/15 00:13:40;;;;;;;6.13;4.57;;;;;;;;;;5134114;27;20022;-67
2023/02/15 00:16:08;;;;;;;7.03;4.22;;;;;;;;;;5132529;27;20039;-67
2023/02/15 00:18:34;;;;;;;7.88;4.60;;;;;;;;;;5136098;27;20027;-68
2023/02/15 00:21:04;;;;;;;4.90;3.95;;;;;;;;;;5138632;27;20482;-68
2023/02/15 00:23:30;;;;;;;6.20;3.90;;;;;;;;;;5136093;27;20018;-68
2023/02/15 00:26:07;;;;;;;5.32;4.03;;;;;;;;;;5136499;27;20011;-68
2023/02/15 00:28:33;;;;;;;5.32;4.45;;;;;;;;;;5134257;27;20038;-67
2023/02/15 00:31:12;;;;;;;5.13;4.10;;;;;;;;;;5139335;27;20027;-69
2023/02/15 00:33:39;;;;;;;5.03;3.92;;;;;;;;;;5131858;27;20023;-68
2023/02/15 00:36:09;;;;;;;5.05;4.20;;;;;;;;;;5142275;27;20579;-68
2023/02/15 00:38:35;;;;;;;5.68;4.13;;;;;;;;;;5129734;27;20025;-68
2023/02/15 00:41:03;;;;;;;5.97;4.07;;;;;;;;;;5136772;27;20045;-67
2023/02/15 00:43:30;;;;;;;8.52;4.50;;;;;;;;;;5136821;27;20684;-68
2023/02/15 00:45:56;;;;;;;5.68;4.50;;;;;;;;;;5133509;27;20079;-72
2023/02/15 00:48:23;;;;;;;6.38;4.22;;;;;;;;;;5137238;27;20168;-67
2023/02/15 00:50:53;;;;;;;5.57;4.00;;;;;;;;;;5130177;27;20507;-68
2023/02/15 00:53:19;;;;;;;4.97;4.00;;;;;;;;;;5136888;27;20012;-68
2023/02/15 00:55:46;;;;;;;5.88;4.38;;;;;;;;;;5136828;27;20029;-67
2023/02/15 00:58:13;;;;;;;5.20;4.25;;;;;;;;;;5135410;27;20554;-67
2023/02/15 01:00:40;;;;;;;7.05;4.18;;;;;;;;;;5130470;27;20035;-67
2023/02/15 01:03:06;;;;;;;4.95;3.70;;;;;;;;;;5134793;27;20107;-73
2023/02/15 01:05:33;;;;;;;8.52;4.15;;;;;;;;;;5135901;27;20015;-68
2023/02/15 01:07:59;;;;;;;7.97;4.70;;;;;;;;;;5131387;27;20019;-68
2023/02/15 01:10:26;;;;;;;6.15;4.38;;;;;;;;;;5118212;27;20020;-72
2023/02/15 01:12:53;;;;;;;7.05;4.32;;;;;;;;;;5131405;27;20095;-68
2023/02/15 01:15:19;;;;;;;7.00;4.65;;;;;;;;;;5129962;27;20074;-68
2023/02/15 01:17:51;;;;;;;6.53;4.28;;;;;;;;;;5137426;27;20014;-73
2023/02/15 01:20:21;;;;;;;6.83;4.10;;;;;;;;;;5134738;27;20033;-67
2023/02/15 01:22:49;;;;;;;6.60;4.43;;;;;;;;;;5141711;27;21031;-68
2023/02/15 01:25:16;;;;;;;5.13;4.10;;;;;;;;;;5133936;27;20520;-67
2023/02/15 01:27:42;;;;;;;7.28;4.75;;;;;;;;;;5139025;27;20026;-67
2023/02/15 01:30:09;;;;;;;7.13;4.30;;;;;;;;;;5142632;27;20019;-69
2023/02/15 01:32:35;;;;;;;6.75;4.82;;;;;;;;;;5135957;27;20015;-68
2023/02/15 01:35:02;;;;;;;6.55;3.72;;;;;;;;;;5123302;27;20179;-67
2023/02/15 01:37:31;;;;;;;5.70;4.50;;;;;;;;;;5132220;27;20023;-68
2023/02/15 01:39:57;;;;;;;7.03;3.63;;;;;;;;;;5141743;27;20524;-68
2023/02/15 01:42:24;;;;;;;6.22;4.00;;;;;;;;;;5137160;27;20038;-67
2023/02/15 01:44:51;;;;;;;5.88;4.28;;;;;;;;;;5140145;27;20047;-67
2023/02/15 01:47:37;;;;;;;5.60;4.18;;;;;;;;;;5139097;27;20455;-68
2023/02/15 01:50:12;;;;;;;4.63;3.92;;;;;;;;;;5130326;27;20433;-67
2023/02/15 01:52:41;;;;;;;4.63;3.70;;;;;;;;;;5135681;27;20056;-67
2023/02/15 01:55:08;;;;;;;6.78;3.80;;;;;;;;;;5134104;27;20026;-68
2023/02/15 01:57:35;;;;;;;5.75;3.90;;;;;;;;;;5138062;27;20029;-67
2023/02/15 02:00:04;;;;;;;7.90;5.03;;;;;;;;;;5136198;27;20087;-69
2023/02/15 02:02:30;;;;;;;6.50;4.10;;;;;;;;;;5137008;27;20038;-68
2023/02/15 02:05:02;;;;;;;4.70;3.65;;;;;;;;;;5136024;27;20012;-68
2023/02/15 02:07:31;;;;;;;7.80;4.20;;;;;;;;;;5121422;27;20092;-68
2023/02/15 02:09:57;;;;;;;4.90;3.78;;;;;;;;;;5133242;27;20019;-67
2023/02/15 02:12:24;;;;;;;5.32;4.07;;;;;;;;;;5138329;27;20405;-81
2023/02/15 02:14:51;;;;;;;5.63;3.83;;;;;;;;;;5133558;27;20095;-70
2023/02/15 02:17:21;;;;;;;6.20;4.13;;;;;;;;;;5136998;27;20015;-67
2023/02/15 02:20:05;;;;;;;4.68;3.70;;;;;;;;;;5133015;27;20513;-67
2023/02/15 02:22:46;;;;;;;5.70;4.10;;;;;;;;;;5140741;27;20052;-68
2023/02/15 02:25:33;;;;;;;5.28;3.65;;;;;;;;;;5132736;27;20159;-67
2023/02/15 02:28:17;;;;;;;6.60;4.18;;;;;;;;;;5136361;27;20031;-67
2023/02/15 02:31:02;;;;;;;6.25;4.32;;;;;;;;;;5131965;27;20053;-68
2023/02/15 02:33:35;;;;;;;5.63;4.13;;;;;;;;;;5135354;27;20019;-67
2023/02/15 02:36:13;;;;;;;5.07;3.50;;;;;;;;;;5132625;27;20038;-68
2023/02/15 02:39:04;;;;;;;5.22;4.03;;;;;;;;;;5135293;27;20134;-67
2023/02/15 02:41:40;;;;;;;5.55;3.60;;;;;;;;;;5135931;27;20499;-68
2023/02/15 02:44:28;;;;;;;6.65;4.15;;;;;;;;;;5134486;27;20029;-67
2023/02/15 02:46:58;;;;;;;8.48;4.00;;;;;;;;;;5129677;27;20532;-77
2023/02/15 02:49:33;;;;;;;6.72;3.80;;;;;;;;;;5134506;27;20019;-67
2023/02/15 02:52:00;;;;;;;4.85;3.72;;;;;;;;;;5138475;27;20030;-67
2023/02/15 02:54:27;;;;;;;8.50;3.80;;;;;;;;;;5134278;27;20015;-67
2023/02/15 02:56:55;;;;;;;5.07;3.70;;;;;;;;;;5134664;27;20499;-67
2023/02/15 02:59:27;;;;;;;5.55;3.85;;;;;;;;;;5132156;27;20025;-75
2023/02/15 03:02:00;;;;;;;7.35;4.10;;;;;;;;;;5141761;27;20053;-67
2023/02/15 03:04:32;;;;;;;5.75;3.80;;;;;;;;;;5120611;27;20549;-68
2023/02/15 03:07:01;;;;;;;5.47;3.58;;;;;;;;;;5136119;27;20027;-71
2023/02/15 03:09:42;;;;;;;6.07;4.10;;;;;;;;;;5142888;27;20023;-68
2023/02/15 03:12:17;;;;;;;5.95;3.58;;;;;;;;;;5139699;27;20050;-67
2023/02/15 03:14:43;;;;;;;4.10;3.40;;;;;;;;;;5141114;27;20483;-67
2023/02/15 03:17:11;;;;;;;5.95;3.97;;;;;;;;;;5137722;27;20023;-67
2023/02/15 03:19:39;;;;;;;4.65;3.17;;;;;;;;;;5143202;27;20019;-70
2023/02/15 03:22:09;;;;;;;5.20;3.80;;;;;;;;;;5136521;27;20050;-67
2023/02/15 03:24:42;;;;;;;4.55;3.70;;;;;;;;;;5136225;27;20030;-67
2023/02/15 03:27:13;;;;;;;6.78;3.63;;;;;;;;;;5140271;27;20030;-67
2023/02/15 03:29:39;;;;;;;5.43;3.35;;;;;;;;;;5142128;27;20043;-67
2023/02/15 03:32:07;;;;;;;8.10;4.32;;;;;;;;;;5137460;27;20029;-68
2023/02/15 03:34:34;;;;;;;5.38;3.78;;;;;;;;;;5145066;27;20030;-67
2023/02/15 03:37:12;;;;;;;5.68;4.03;;;;;;;;;;5138317;27;20105;-68
2023/02/15 03:39:41;;;;;;;4.68;3.67;;;;;;;;;;5137122;27;20091;-66
2023/02/15 03:42:27;;;;;;;5.65;3.72;;;;;;;;;;5139711;27;20050;-67
2023/02/15 03:44:56;;;;;;;6.05;3.45;;;;;;;;;;5135171;27;20054;-67
2023/02/15 03:47:33;;;;;;;5.57;3.58;;;;;;;;;;5137927;27;20033;-67
2023/02/15 03:51:33;;;;;;;6.53;4.18;;;;;;;;;;5133143;27;20043;-69
2023/02/15 03:52:51;;;;;;;7.60;4.32;;;;;;;;;;5142528;27;20031;-67
2023/02/15 03:55:17;;;;;;;6.85;3.80;;;;;;;;;;5136863;27;20022;-67
2023/02/15 04:03:28;;;;;;;6.10;3.75;;;;;;;;;;5133666;27;20038;-68
2023/02/15 04:05:54;;;;;;;4.80;3.35;;;;;;;;;;5130844;27;20026;-68
2023/02/15 04:10:51;;;;;;;5.40;3.38;;;;;;;;;;5136932;27;20968;-68
2023/02/15 04:11:07;;;;;;;4.50;3.70;;;;;;;;;;5132307;27;20034;-68
2023/02/15 04:13:33;;;;;;;5.28;3.60;;;;;;;;;;5133835;27;20075;-67
2023/02/15 04:16:05;;;;;;;5.47;3.92;;;;;;;;;;5132095;27;20015;-67
2023/02/15 04:26:55;;;;;;;4.25;3.25;;;;;;;;;;5137749;27;20038;-67
2023/02/15 04:29:23;;;;;;;5.68;3.63;;;;;;;;;;5135347;27;20026;-67
2023/02/15 04:31:50;;;;;;;6.53;3.75;;;;;;;;;;5137344;27;20023;-69
2023/02/15 04:34:16;;;;;;;5.40;3.35;;;;;;;;;;5132672;27;20027;-69
2023/02/15 04:36:43;;;;;;;4.88;3.45;;;;;;;;;;5135095;27;20035;-67
2023/02/15 04:39:09;;;;;;;5.18;3.63;;;;;;;;;;5116693;28;20027;-78
2023/02/15 04:41:36;;;;;;;3.95;3.10;;;;;;;;;;5131843;27;20482;-67
2023/02/15 04:44:02;;;;;;;5.55;3.97;;;;;;;;;;5129710;27;20085;-68
2023/02/15 04:46:28;;;;;;;4.85;3.47;;;;;;;;;;5115628;27;20117;-67
2023/02/15 04:48:55;;;;;;;4.85;3.50;;;;;;;;;;5136231;27;20162;-69
2023/02/15 04:51:21;;;;;;;5.05;3.38;;;;;;;;;;5128939;27;20627;-68
2023/02/15 04:53:47;;;;;;;5.97;3.78;;;;;;;;;;5130136;27;20381;-67
2023/02/15 04:56:13;;;;;;;5.75;3.35;;;;;;;;;;5134386;27;20034;-67
2023/02/15 04:58:41;;;;;;;4.40;3.35;;;;;;;;;;5132581;27;20027;-68
2023/02/15 05:01:10;;;;;;;5.70;3.75;;;;;;;;;;5132001;27;20031;-70
2023/02/15 05:03:36;;;;;;;6.05;3.78;;;;;;;;;;5133416;27;20011;-68
2023/02/15 05:06:03;;;;;;;4.35;3.60;;;;;;;;;;5137298;27;20026;-69
2023/02/15 05:08:30;;;;;;;5.13;3.60;;;;;;;;;;5132504;27;20074;-67
2023/02/15 05:10:56;;;;;;;4.80;3.70;;;;;;;;;;5132897;27;20015;-68
2023/02/15 05:13:22;;;;;;;5.38;3.67;;;;;;;;;;5136050;27;20033;-68
2023/02/15 05:15:49;;;;;;;4.47;3.50;;;;;;;;;;5129865;27;20037;-68
2023/02/15 05:18:16;;;;;;;4.72;3.35;;;;;;;;;;5133614;27;20027;-72
2023/02/15 05:20:42;;;;;;;4.75;3.72;;;;;;;;;;5131059;27;20039;-67
2023/02/15 05:23:08;;;;;;;5.75;3.55;;;;;;;;;;5120957;27;20500;-68
2023/02/15 05:28:19;;;;;;;7.70;4.78;;;;;;;;;;5130542;27;20126;-67
2023/02/15 05:30:46;;;;;;;5.50;3.88;;;;;;;;;;5128328;27;20540;-68
2023/02/15 05:33:12;;;;;;;6.78;3.80;;;;;;;;;;5130959;27;20082;-69
2023/02/15 05:35:38;;;;;;;6.38;3.80;;;;;;;;;;5129059;27;20019;-67
2023/02/15 05:38:05;;;;;;;5.07;3.63;;;;;;;;;;5132159;27;20020;-74
2023/02/15 05:40:31;;;;;;;7.30;3.88;;;;;;;;;;5128503;27;20027;-67
2023/02/15 05:42:57;;;;;;;4.63;3.67;;;;;;;;;;5134021;27;20475;-68
2023/02/15 05:45:23;;;;;;;5.15;3.92;;;;;;;;;;5130591;27;20023;-67
2023/02/15 05:47:50;;;;;;;4.72;3.40;;;;;;;;;;5134222;27;20027;-67
2023/02/15 05:50:16;;;;;;;4.25;3.13;;;;;;;;;;5134588;27;20533;-67
2023/02/15 05:52:42;;;;;;;4.38;3.38;;;;;;;;;;5131557;27;20028;-71
2023/02/15 05:55:08;;;;;;;4.82;3.25;;;;;;;;;;5130650;27;20042;-67
2023/02/15 05:57:35;;;;;;;4.97;3.20;;;;;;;;;;5139293;27;20023;-68
2023/02/15 06:00:04;;;;;;;7.88;3.70;;;;;;;;;;5136505;27;20076;-70
2023/02/15 06:02:30;;;;;;;5.00;3.40;;;;;;;;;;5132812;27;20542;-67
2023/02/15 06:04:56;;;;;;;4.75;3.47;;;;;;;;;;5130146;27;20019;-67
2023/02/15 06:07:22;;;;;;;4.50;3.08;;;;;;;;;;5131955;27;20149;-68
2023/02/15 06:09:48;;;;;;;4.57;3.33;;;;;;;;;;5129332;27;20091;-67
2023/02/15 06:12:14;;;;;;;7.72;3.80;;;;;;;;;;5132907;27;20029;-77
2023/02/15 06:14:41;;;;;;;4.43;3.83;;;;;;;;;;5128350;27;20033;-67
2023/02/15 06:17:07;;;;;;;3.97;3.33;;;;;;;;;;5129040;27;20019;-68
2023/02/15 06:19:33;;;;;;;5.22;3.45;;;;;;;;;;5127305;27;20140;-75
2023/02/15 06:21:59;;;;;;;4.47;3.30;;;;;;;;;;5132763;27;20034;-68
2023/02/15 06:24:25;;;;;;;4.55;2.97;;;;;;;;;;5131794;27;20471;-68
2023/02/15 06:26:51;;;;;;;6.40;3.70;;;;;;;;;;5129678;27;20027;-68
2023/02/15 06:29:18;;;;;;;6.63;3.38;;;;;;;;;;5132733;27;20015;-68
2023/02/15 06:31:44;;;;;;;6.60;3.50;;;;;;;;;;5126783;27;20107;-69
2023/02/15 06:34:10;;;;;;;6.65;3.63;;;;;;;;;;5131446;27;20041;-67
2023/02/15 06:36:36;;;;;;;5.63;3.63;;;;;;;;;;5134996;27;20070;-73
2023/02/15 06:39:03;;;;;;;5.15;3.65;;;;;;;;;;5126492;27;20057;-75
2023/02/15 06:41:30;;;;;;;5.00;3.50;;;;;;;;;;5131688;27;20042;-68
2023/02/15 06:43:56;;;;;;;8.85;3.30;;;;;;;;;;5126275;27;20478;-68
2023/02/15 06:46:22;;;;;;;4.80;3.50;;;;;;;;;;5130186;27;20068;-68
2023/02/15 06:48:48;;;;;;;3.90;3.00;;;;;;;;;;5125408;27;20076;-69
2023/02/15 06:51:14;;;;;;;4.88;3.50;;;;;;;;;;5127499;27;20023;-68
2023/02/15 06:53:42;;;;;;;8.23;3.90;;;;;;;;;;5135474;27;20144;-68
2023/02/15 06:56:09;;;;;;;5.85;3.42;;;;;;;;;;5125665;27;20079;-68
2023/02/15 06:58:39;;;;;;;7.53;3.92;;;;;;;;;;5135074;27;20022;-68
2023/02/15 07:01:05;;;;;;;5.65;3.65;;;;;;;;;;5123494;27;20989;-68
2023/02/15 07:03:32;;;;;;;7.68;3.83;;;;;;;;;;5131972;27;20386;-67
2023/02/15 07:05:59;;;;;;;4.05;3.25;;;;;;;;;;5125518;27;20074;-68
2023/02/15 07:08:26;;;;;;;4.65;3.08;;;;;;;;;;5127869;27;20027;-67
2023/02/15 07:10:52;;;;;;;7.90;3.58;;;;;;;;;;5131428;27;20061;-68
2023/02/15 07:13:18;;;;;;;5.55;3.63;;;;;;;;;;5125214;27;20015;-68
2023/02/15 07:15:45;;;;;;;6.13;3.70;;;;;;;;;;5131975;27;20019;-69
2023/02/15 07:18:11;;;;;;;10.07;5.18;;;;;;;;;;5130493;27;20018;-68
2023/02/15 07:20:40;;;;;;;8.73;5.20;;;;;;;;;;5130938;27;20015;-68
2023/02/15 07:23:06;;;;;;;8.32;5.03;;;;;;;;;;5124889;27;20172;-68
2023/02/15 07:25:32;;;;;;;7.03;4.50;;;;;;;;;;5128808;27;20022;-68
2023/02/15 07:27:59;;;;;;;12.35;6.75;;;;;;;;;;5133450;27;20018;-68
2023/02/15 07:30:25;;;;;;;14.82;6.75;;;;;;;;;;5127646;27;20023;-68
2023/02/15 07:35:36;;;;;;;11.68;6.15;;;;;;;;;;5128285;27;20072;-68
2023/02/15 07:38:02;;;;;;;10.50;5.47;;;;;;;;;;5134149;27;20030;-68
2023/02/15 07:40:28;;;;;;;10.23;4.93;;;;;;;;;;5128649;27;20015;-67
2023/02/15 07:42:58;;;;;;;6.22;4.38;;;;;;;;;;5133327;27;20023;-68
2023/02/15 07:45:24;;;;;;;6.07;4.45;;;;;;;;;;5126982;27;20039;-68
2023/02/15 07:47:51;;;;;;;7.25;4.22;;;;;;;;;;5131409;27;20027;-67
2023/02/15 07:50:17;;;;;;;5.22;3.97;;;;;;;;;;5126997;27;20015;-68
2023/02/15 07:52:43;;;;;;;6.35;3.85;;;;;;;;;;5129478;27;20019;-69
2023/02/15 07:55:12;;;;;;;5.05;3.47;;;;;;;;;;5126398;27;20019;-68
2023/02/15 07:57:41;;;;;;;10.77;3.92;;;;;;;;;;5128869;27;20952;-68
2023/02/15 08:00:08;;;;;;;6.93;3.97;;;;;;;;;;5131909;27;20094;-68
2023/02/15 08:02:36;;;;;;;11.80;4.10;;;;;;;;;;5128037;27;20027;-68
2023/02/15 08:05:03;;;;;;;4.60;3.40;;;;;;;;;;5136425;27;20478;-69
2023/02/15 08:07:29;;;;;;;8.18;3.95;;;;;;;;;;5137224;27;20042;-68
2023/02/15 08:09:55;;;;;;;5.35;3.53;;;;;;;;;;5133340;27;20029;-68
2023/02/15 08:12:21;;;;;;;7.07;4.13;;;;;;;;;;5124735;27;20023;-69
2023/02/15 08:14:47;;;;;;;7.13;4.03;;;;;;;;;;5127271;27;20027;-80
2023/02/15 08:17:13;;;;;;;5.22;3.60;;;;;;;;;;5132499;27;20599;-80
2023/02/15 08:19:40;;;;;;;5.03;4.05;;;;;;;;;;5131421;27;20019;-75
2023/02/15 08:22:07;;;;;;;4.32;3.35;;;;;;;;;;5136381;27;20039;-73
2023/02/15 08:24:34;;;;;;;6.50;4.70;;;;;;;;;;5142894;27;20090;-76
2023/02/15 08:27:04;;;;;;;7.10;4.78;;;;;;;;;;5134202;27;20030;-77
2023/02/15 08:29:31;;;;;;;13.55;5.35;;;;;;;;;;5116025;27;20574;-79
2023/02/15 08:32:01;;;;;;;40.25;9.80;;;;;;;;;;5116323;27;20035;-80
2023/02/15 08:34:27;;;;;;;42.90;9.73;;;;;;;;;;5135942;27;20042;-77
2023/02/15 08:36:54;;;;;;;26.80;8.90;;;;;;;;;;5130105;27;20076;-80
2023/02/15 08:39:21;;;;;;;9.93;4.65;;;;;;;;;;5144115;27;20024;-79
2023/02/15 08:41:47;;;;;;;8.50;5.43;;;;;;;;;;5131979;27;20076;-74
2023/02/15 08:44:15;;;;;;;5.55;3.60;;;;;;;;;;5116664;27;20515;-78
2023/02/15 08:46:42;;;;;;;6.03;4.03;;;;;;;;;;5136394;27;20022;-82
2023/02/15 08:49:09;;;;;;;4.75;3.72;;;;;;;;;;5131163;27;20022;-80
2023/02/15 08:51:37;;;;;;;10.60;4.35;;;;;;;;;;5135338;27;20466;-80
2023/02/15 08:54:08;;;;;;;8.45;4.28;;;;;;;;;;5138892;27;20084;-71
2023/02/15 08:56:36;;;;;;;6.45;4.03;;;;;;;;;;5134873;27;20026;-74
2023/02/15 08:59:02;;;;;;;8.98;4.30;;;;;;;;;;5133730;27;20058;-78
2023/02/15 09:01:29;;;;;;;10.65;4.45;;;;;;;;;;5130802;27;20034;-79
2023/02/15 09:03:57;;;;;;;5.82;3.97;;;;;;;;;;5135117;27;20498;-80
2023/02/15 09:06:23;;;;;;;22.17;5.28;;;;;;;;;;5133069;27;20086;-81
2023/02/15 09:08:50;;;;;;;13.38;4.35;;;;;;;;;;5136510;27;20132;-77
2023/02/15 09:11:22;;;;;;;6.30;4.18;;;;;;;;;;5129504;27;20026;-71
2023/02/15 09:13:59;;;;;;;5.95;3.30;;;;;;;;;;5141658;27;20496;-80
2023/02/15 09:16:27;;;;;;;5.47;3.58;;;;;;;;;;5134550;27;20039;-79
2023/02/15 09:18:53;;;;;;;4.65;3.70;;;;;;;;;;5133136;27;20011;-73
2023/02/15 09:21:21;;;;;;;4.85;3.25;;;;;;;;;;5133423;27;20078;-80
2023/02/15 09:23:49;;;;;;;8.93;3.88;;;;;;;;;;5117179;27;20027;-82
2023/02/15 09:26:16;;;;;;;6.00;3.33;;;;;;;;;;5134401;27;20027;-80
2023/02/15 09:28:43;;;;;;;5.82;3.05;;;;;;;;;;5137785;27;20019;-79
2023/02/15 09:31:09;;;;;;;5.45;3.10;;;;;;;;;;5136753;27;20037;-75
2023/02/15 09:33:36;;;;;;;4.25;3.38;;;;;;;;;;5132822;27;20054;-82
2023/02/15 09:36:03;;;;;;;4.50;2.95;;;;;;;;;;5135588;27;20798;-75
2023/02/15 09:38:29;;;;;;;4.25;2.95;;;;;;;;;;5111738;27;20015;-79
2023/02/15 09:41:04;;;;;;;5.68;3.25;;;;;;;;;;5133596;27;20637;-80
2023/02/15 09:43:50;;;;;;;5.60;3.00;;;;;;;;;;5132732;27;20128;-78
2023/02/15 09:46:26;;;;;;;4.63;3.83;;;;;;;;;;5138620;27;20026;-81
2023/02/15 09:48:56;;;;;;;3.85;3.22;;;;;;;;;;5129106;27;20102;-79
2023/02/15 09:51:38;;;;;;;4.70;3.55;;;;;;;;;;5130012;27;20879;-81
2023/02/15 09:54:05;;;;;;;;;;;;;;;;;;5128248;27;20031;-80
2023/02/15 09:56:39;;;;;;;6.88;3.53;;;;;;;;;;5132932;27;19946;-81
2023/02/15 09:59:24;;;;;;;5.00;3.35;;;;;;;;;;5130947;27;20027;-79
2023/02/15 10:01:59;;;;;;;4.53;3.45;;;;;;;;;;5134261;27;20035;-81
2023/02/15 10:04:52;;;;;;;5.72;2.72;;;;;;;;;;5127277;27;20498;-81
2023/02/15 10:07:34;;;;;;;3.88;3.08;;;;;;;;;;5134879;27;20070;-78
2023/02/15 10:10:04;;;;;;;4.85;3.03;;;;;;;;;;5133413;27;20071;-78
2023/02/15 10:12:49;;;;;;;6.13;3.15;;;;;;;;;;5137004;27;20125;-74
2023/02/15 10:15:30;;;;;;;6.90;3.53;;;;;;;;;;5124928;27;20037;-73
2023/02/15 10:18:04;;;;;;;3.50;3.20;;;;;;;;;;5131944;27;20435;-79
2023/02/15 10:21:02;;;;;;;4.10;3.10;;;;;;;;;;5136936;27;20776;-79
2023/02/15 10:23:47;;;;;;;4.75;3.47;;;;;;;;;;5093017;27;20034;-79
2023/02/15 10:26:13;;;;;;;8.27;2.63;;;;;;;;;;5133185;27;20031;-76
2023/02/15 10:28:49;;;;;;;3.83;2.97;;;;;;;;;;5133448;27;20516;-77
2023/02/15 10:31:26;;;;;;;6.05;3.47;;;;;;;;;;5140732;27;20497;-77
2023/02/15 10:34:04;;;;;;;6.22;3.70;;;;;;;;;;5134880;27;20622;-79
2023/02/15 10:36:40;;;;;;;4.90;4.03;;;;;;;;;;5131746;27;20035;-80
2023/02/15 10:39:11;;;;;;;5.65;4.03;;;;;;;;;;5134974;27;20114;-82
2023/02/15 10:41:40;;;;;;;7.07;3.80;;;;;;;;;;5137836;27;20489;-73
2023/02/15 10:44:33;;;;;;;4.30;3.65;;;;;;;;;;5133570;27;20027;-77
2023/02/15 10:47:05;;;;;;;6.15;3.80;;;;;;;;;;5131629;27;20023;-74
2023/02/15 10:49:31;;;;;;;;;;;;;;;;;;5119351;27;20034;-82
2023/02/15 10:52:04;;;;;;;4.90;3.30;;;;;;;;;;5132406;27;20491;-80
2023/02/15 10:54:30;;;;;;;4.28;3.47;;;;;;;;;;5134550;27;20022;-80
2023/02/15 10:57:00;;;;;;;4.05;3.10;;;;;;;;;;5112981;27;20031;-76
2023/02/15 10:59:56;;;;;;;4.93;3.35;;;;;;;;;;5137089;27;20457;-75
2023/02/15 11:02:41;;;;;;;5.57;3.30;;;;;;;;;;5123200;27;20050;-78
2023/02/15 11:05:28;;;;;;;4.03;3.38;;;;;;;;;;5131813;27;20486;-83
2023/02/15 11:07:55;;;;;;;5.88;4.07;;;;;;;;;;5131831;27;20030;-82
2023/02/15 11:10:27;;;;;;;6.60;3.78;;;;;;;;;;5136343;27;20023;-76
2023/02/15 11:12:53;;;;;;;;;;;;;;;;;;5119287;27;20023;-77
2023/02/15 11:15:35;;;;;;;5.68;4.05;;;;;;;;;;5131373;27;20251;-76
2023/02/15 11:18:10;;;;;;;4.97;2.93;;;;;;;;;;5135704;27;20098;-78
2023/02/15 11:20:39;;;;;;;6.78;3.35;;;;;;;;;;5131222;27;20841;-80
2023/02/15 11:23:15;;;;;;;3.80;3.10;;;;;;;;;;5134123;27;20046;-82
2023/02/15 11:25:41;;;;;;;4.35;3.03;;;;;;;;;;5135440;27;20027;-71
2023/02/15 11:28:13;;;;;;;4.28;3.28;;;;;;;;;;5142818;27;20123;-81
2023/02/15 11:30:46;;;;;;;5.40;3.28;;;;;;;;;;5130780;27;20571;-80
2023/02/15 11:33:18;;;;;;;7.25;3.63;;;;;;;;;;5134511;27;20123;-73
2023/02/15 11:35:50;;;;;;;4.80;3.05;;;;;;;;;;5130085;27;20019;-70
2023/02/15 11:38:25;;;;;;;4.88;2.90;;;;;;;;;;5140036;27;20026;-80
2023/02/15 11:41:00;;;;;;;3.72;3.03;;;;;;;;;;5124331;27;20035;-73
2023/02/15 11:43:49;;;;;;;4.15;3.20;;;;;;;;;;5129537;27;20101;-74
2023/02/15 11:46:15;;;;;;;4.13;3.22;;;;;;;;;;5129031;27;20027;-73
2023/02/15 11:48:42;;;;;;;7.47;3.13;;;;;;;;;;5138430;27;20027;-73
2023/02/15 11:51:16;;;;;;;6.05;3.05;;;;;;;;;;5142164;27;20054;-78
2023/02/15 11:53:43;;;;;;;4.53;2.65;;;;;;;;;;5127433;27;20018;-82
2023/02/15 11:56:20;;;;;;;4.53;2.85;;;;;;;;;;5124052;27;20030;-77
2023/02/15 11:58:54;;;;;;;3.40;2.97;;;;;;;;;;5128527;27;20085;-73
2023/02/15 12:01:32;;;;;;;4.72;2.75;;;;;;;;;;5123916;27;20043;-80
2023/02/15 12:04:08;;;;;;;3.03;2.55;;;;;;;;;;5133254;27;20075;-80
2023/02/15 12:06:38;;;;;;;6.13;2.97;;;;;;;;;;5128654;27;20529;-80
2023/02/15 12:09:23;;;;;;;3.97;2.95;;;;;;;;;;5129043;27;20023;-77
2023/02/15 12:11:49;;;;;;;3.67;2.50;;;;;;;;;;5130565;27;20091;-80
2023/02/15 12:14:15;;;;;;;3.53;2.63;;;;;;;;;;5133428;27;20026;-72
2023/02/15 12:16:50;;;;;;;4.18;3.00;;;;;;;;;;5145406;27;20026;-70
2023/02/15 12:19:28;;;;;;;4.15;3.20;;;;;;;;;;5136682;27;20043;-78
2023/02/15 12:21:54;;;;;;;5.00;2.90;;;;;;;;;;5132759;27;20047;-76
2023/02/15 12:24:29;;;;;;;4.68;3.08;;;;;;;;;;5128168;27;20031;-78
2023/02/15 12:27:00;;;;;;;6.53;2.97;;;;;;;;;;5127731;27;20034;-75
2023/02/15 12:29:28;;;;;;;4.32;3.05;;;;;;;;;;5139611;27;20687;-77
2023/02/15 12:31:54;;;;;;;6.38;3.53;;;;;;;;;;5125306;27;20026;-73
2023/02/15 12:34:39;;;;;;;5.25;2.95;;;;;;;;;;5124998;27;20023;-73
2023/02/15 12:37:16;;;;;;;5.35;3.30;;;;;;;;;;5134716;27;20015;-71
2023/02/15 12:39:52;;;;;;;4.45;3.10;;;;;;;;;;5125098;27;20577;-72
2023/02/15 12:42:19;;;;;;;3.75;2.88;;;;;;;;;;5132279;27;20340;-72
2023/02/15 12:45:11;;;;;;;4.80;3.20;;;;;;;;;;5130627;27;20027;-73
2023/02/15 12:47:37;;;;;;;5.10;2.83;;;;;;;;;;5101049;27;20630;-72
2023/02/15 12:50:21;;;;;;;4.18;2.75;;;;;;;;;;5129899;27;20066;-70
2023/02/15 12:52:49;;;;;;;4.45;2.65;;;;;;;;;;5131423;27;20015;-74
2023/02/15 12:55:27;;;;;;;3.78;3.05;;;;;;;;;;5122203;27;20027;-74
2023/02/15 12:58:06;;;;;;;3.88;3.20;;;;;;;;;;5123505;27;20114;-74
2023/02/15 13:00:32;;;;;;;4.75;2.63;;;;;;;;;;5129997;27;20656;-74
2023/02/15 13:02:59;;;;;;;4.80;2.97;;;;;;;;;;5128927;27;20513;-72
2023/02/15 13:05:38;;;;;;;6.00;4.45;;;;;;;;;;5136477;27;20038;-71
2023/02/15 13:08:04;;;;;;;3.95;3.13;;;;;;;;;;5123280;27;20030;-74
2023/02/15 13:10:32;;;;;;;3.80;2.88;;;;;;;;;;5129850;27;20019;-70
2023/02/15 13:12:59;;;;;;;5.88;3.20;;;;;;;;;;5122998;27;20522;-70
2023/02/15 13:15:26;;;;;;;6.18;3.53;;;;;;;;;;5131640;27;20077;-71
2023/02/15 13:17:53;;;;;;;5.63;2.80;;;;;;;;;;5134736;27;20019;-73
2023/02/15 13:20:24;;;;;;;4.25;3.30;;;;;;;;;;5130378;27;20095;-73
2023/02/15 13:22:52;;;;;;;5.77;3.30;;;;;;;;;;5131509;27;20511;-73
2023/02/15 13:25:23;;;;;;;5.78;4.28;;;;;;;;;;5134396;27;20278;-75
2023/02/15 13:27:52;;;;;;;4.40;3.22;;;;;;;;;;5134077;27;20407;-74
2023/02/15 13:30:21;;;;;;;5.03;3.30;;;;;;;;;;5126372;27;20486;-71
2023/02/15 13:32:49;;;;;;;4.32;3.17;;;;;;;;;;5134141;27;20022;-73
2023/02/15 13:35:16;;;;;;;3.58;3.13;;;;;;;;;;5129951;27;20023;-71
2023/02/15 13:37:42;;;;;;;3.90;3.05;;;;;;;;;;5133598;27;20023;-74
2023/02/15 13:40:14;;;;;;;4.55;3.33;;;;;;;;;;5129102;27;20122;-73
2023/02/15 13:42:49;;;;;;;4.07;3.03;;;;;;;;;;5132281;27;20046;-72
2023/02/15 13:45:23;;;;;;;3.75;3.00;;;;;;;;;;5129937;27;20077;-71
2023/02/15 13:48:07;;;;;;;5.82;3.45;;;;;;;;;;5138061;27;20031;-71
2023/02/15 13:50:33;;;;;;;4.60;3.17;;;;;;;;;;5135214;27;20811;-82
2023/02/15 13:53:17;;;;;;;4.53;3.17;;;;;;;;;;5132645;27;20026;-69
2023/02/15 13:55:49;;;;;;;4.32;3.42;;;;;;;;;;5136394;27;20023;-78
2023/02/15 13:58:21;;;;;;;4.63;3.47;;;;;;;;;;5132831;27;20091;-84
2023/02/15 14:00:47;;;;;;;4.90;3.10;;;;;;;;;;5128538;27;20107;-84
2023/02/15 14:03:23;;;;;;;5.35;3.28;;;;;;;;;;5130097;27;20157;-81
2023/02/15 14:05:58;;;;;;;5.43;3.50;;;;;;;;;;5135976;27;20342;-81
2023/02/15 14:08:43;;;;;;;5.65;3.45;;;;;;;;;;5129370;27;20012;-82
2023/02/15 14:11:32;;;;;;;5.38;3.30;;;;;;;;;;5137808;27;20102;-81
2023/02/15 14:14:13;;;;;;;4.93;3.50;;;;;;;;;;5116420;27;20026;-74
2023/02/15 14:16:39;;;;;;;6.15;3.28;;;;;;;;;;5142530;27;20029;-72
2023/02/15 14:19:14;;;;;;;4.30;3.17;;;;;;;;;;5128614;27;20023;-78
2023/02/15 14:21:41;;;;;;;4.97;3.70;;;;;;;;;;5136937;27;20045;-79
2023/02/15 14:24:08;;;;;;;4.57;3.00;;;;;;;;;;5107247;27;20031;-77
2023/02/15 14:26:37;;;;;;;5.05;3.53;;;;;;;;;;5133167;27;20019;-79
2023/02/15 14:29:24;;;;;;;5.30;3.50;;;;;;;;;;5133916;27;20035;-82
2023/02/15 14:31:53;;;;;;;5.22;3.40;;;;;;;;;;5133927;27;20504;-74
2023/02/15 14:34:24;;;;;;;4.72;3.40;;;;;;;;;;5131555;27;20015;-77
2023/02/15 14:36:51;;;;;;;4.75;3.58;;;;;;;;;;5141372;27;20019;-80
2023/02/15 14:42:32;;;;;;;5.68;4.05;;;;;;;;;;5139498;27;20049;-82
2023/02/15 14:45:02;;;;;;;6.03;3.30;;;;;;;;;;5129868;27;20029;-79
2023/02/15 14:47:39;;;;;;;6.32;3.13;;;;;;;;;;5133487;27;20033;-80
2023/02/15 14:50:24;;;;;;;4.93;3.55;;;;;;;;;;5128282;27;20339;-78
2023/02/15 14:53:09;;;;;;;10.50;4.45;;;;;;;;;;5130415;27;20459;-76
2023/02/15 14:55:39;;;;;;;5.88;3.53;;;;;;;;;;5126491;27;20015;-81
2023/02/15 14:58:11;;;;;;;5.13;3.58;;;;;;;;;;5110303;27;20063;-76
2023/02/15 15:00:38;;;;;;;7.55;3.70;;;;;;;;;;5131290;27;20026;-73
2023/02/15 15:03:11;;;;;;;6.97;3.78;;;;;;;;;;5130848;27;20062;-78
2023/02/15 15:05:46;;;;;;;5.70;3.35;;;;;;;;;;5130028;27;20475;-78
2023/02/15 15:08:23;;;;;;;5.10;3.25;;;;;;;;;;5126373;27;20080;-77
2023/02/15 15:10:49;;;;;;;5.18;3.72;;;;;;;;;;5129894;27;20035;-81
2023/02/15 15:13:30;;;;;;;6.22;3.88;;;;;;;;;;5132515;27;20027;-74
2023/02/15 15:15:57;;;;;;;6.32;4.45;;;;;;;;;;5134155;27;20045;-80
2023/02/15 15:18:42;;;;;;;5.85;4.05;;;;;;;;;;5128310;27;20023;-83
2023/02/15 15:21:08;;;;;;;8.48;3.70;;;;;;;;;;5131909;27;20125;-77
2023/02/15 15:23:42;;;;;;;5.10;3.92;;;;;;;;;;5128767;27;20034;-74
2023/02/15 15:26:27;;;;;;;4.70;3.33;;;;;;;;;;5131237;27;20029;-75